createdAt,value
2018-02-20T00:01:08.303Z,97.40
2018-02-20T00:03:36.616Z,97.50
2018-02-20T00:06:04.150Z,97.80
2018-02-20T00:08:31.704Z,97.70
2018-02-20T00:10:59.257Z,97.80
2018-02-20T00:13:26.822Z,97.90
2018-02-20T00:15:54.335Z,98.00
2018-02-20T00:18:21.892Z,98.10
2018-02-20T00:20:49.409Z,98.20
2018-02-20T00:23:16.959Z,98.20
2018-02-20T00:25:45.258Z,98.30
2018-02-20T00:28:13.545Z,98.40
2018-02-20T00:30:41.113Z,98.40
2018-02-20T00:33:09.431Z,98.20
2018-02-20T00:35:36.951Z,98.20
2018-02-20T00:38:04.514Z,98.10
2018-02-20T00:40:32.042Z,97.70
2018-02-20T00:42:59.602Z,97.60
2018-02-20T00:45:27.897Z,98.00
2018-02-20T00:47:55.468Z,97.90
2018-02-20T00:50:23.017Z,98.00
2018-02-20T00:52:50.596Z,98.10
2018-02-20T00:55:18.901Z,98.00
2018-02-20T00:57:47.224Z,98.00
2018-02-20T01:00:14.749Z,98.00
2018-02-20T01:02:43.076Z,98.10
2018-02-20T01:05:10.606Z,98.10
2018-02-20T01:07:38.167Z,98.30
2018-02-20T01:10:05.696Z,99.00
2018-02-20T01:12:33.271Z,99.10
2018-02-20T01:15:00.792Z,99.20
2018-02-20T01:17:28.355Z,99.50
2018-02-20T01:19:55.885Z,99.70
2018-02-20T01:22:23.445Z,99.70
2018-02-20T01:24:50.980Z,99.90
2018-02-20T01:27:18.539Z,99.90
2018-02-20T01:29:46.071Z,99.90
2018-02-20T01:32:13.595Z,99.90
2018-02-20T01:34:41.149Z,99.70
2018-02-20T01:37:08.672Z,99.70
2018-02-20T01:39:36.224Z,99.70
2018-02-20T01:42:04.537Z,99.70
2018-02-20T01:44:32.060Z,99.70
2018-02-20T01:46:59.583Z,99.90
2018-02-20T01:49:27.140Z,99.90
2018-02-20T01:51:55.436Z,99.90
2018-02-20T01:54:22.999Z,99.90
2018-02-20T01:56:51.283Z,99.90
2018-02-20T01:59:19.601Z,99.90
2018-02-20T02:01:47.124Z,99.90
2018-02-20T02:04:14.688Z,99.90
2018-02-20T02:09:33.443Z,99.90
2018-02-20T02:12:00.996Z,99.90
2018-02-20T02:14:29.293Z,99.90
2018-02-20T02:16:57.608Z,99.90
2018-02-20T02:19:25.133Z,99.90
2018-02-20T02:21:53.475Z,99.90
2018-02-20T02:24:21.002Z,99.90
2018-02-20T02:26:48.548Z,99.90
2018-02-20T02:29:16.100Z,99.90
2018-02-20T02:31:43.624Z,99.90
2018-02-20T02:34:11.942Z,99.90
2018-02-20T02:36:39.612Z,99.90
2018-02-20T02:39:07.136Z,99.90
2018-02-20T02:41:34.696Z,99.90
2018-02-20T02:44:02.225Z,99.90
2018-02-20T02:46:29.781Z,99.90
2018-02-20T02:48:58.075Z,99.90
2018-02-20T02:51:26.404Z,99.90
2018-02-20T02:53:53.936Z,99.90
2018-02-20T02:56:22.261Z,99.90
2018-02-20T02:58:49.809Z,99.90
2018-02-20T03:01:17.372Z,99.90
2018-02-20T03:03:45.687Z,99.90
2018-02-20T03:06:13.972Z,99.90
2018-02-20T03:08:41.536Z,99.90
2018-02-20T03:11:09.112Z,99.90
2018-02-20T03:13:36.641Z,99.90
2018-02-20T03:16:04.152Z,99.90
2018-02-20T03:18:31.708Z,99.90
2018-02-20T03:21:00.003Z,99.90
2018-02-20T03:23:28.323Z,99.90
2018-02-20T03:25:55.848Z,99.90
2018-02-20T03:28:23.407Z,99.90
2018-02-20T03:30:50.935Z,99.90
2018-02-20T03:33:18.493Z,99.90
2018-02-20T03:35:46.022Z,99.90
2018-02-20T03:38:13.573Z,99.90
2018-02-20T03:40:41.091Z,99.90
2018-02-20T03:43:09.404Z,99.90
2018-02-20T03:45:36.923Z,99.90
2018-02-20T03:48:04.491Z,99.90
2018-02-20T03:50:32.016Z,99.90
2018-02-20T03:52:59.579Z,99.90
2018-02-20T03:55:27.102Z,99.90
2018-02-20T03:57:54.655Z,99.90
2018-02-20T04:00:22.174Z,99.90
2018-02-20T04:02:50.492Z,99.90
2018-02-20T04:05:18.015Z,99.90
2018-02-20T04:07:45.577Z,99.90
2018-02-20T04:10:13.135Z,99.90
2018-02-20T04:12:40.652Z,99.90
2018-02-20T04:15:08.236Z,99.90
2018-02-20T04:17:36.528Z,99.90
2018-02-20T04:20:04.061Z,99.90
2018-02-20T04:22:31.636Z,99.90
2018-02-20T04:24:59.155Z,99.90
2018-02-20T04:27:26.708Z,99.90
2018-02-20T04:29:55.015Z,99.90
2018-02-20T04:32:22.575Z,99.90
2018-02-20T04:34:50.860Z,99.90
2018-02-20T04:37:19.195Z,99.90
2018-02-20T04:39:46.720Z,99.90
2018-02-20T04:42:14.279Z,99.90
2018-02-20T04:44:41.800Z,99.90
2018-02-20T04:47:09.352Z,99.90
2018-02-20T04:49:37.660Z,99.90
2018-02-20T04:52:05.219Z,99.90
2018-02-20T04:54:32.746Z,99.90
2018-02-20T04:57:00.321Z,99.90
2018-02-20T04:59:27.847Z,99.90
2018-02-20T05:01:55.400Z,99.90
2018-02-20T05:04:23.689Z,99.90
2018-02-20T05:06:52.019Z,99.90
2018-02-20T05:09:19.581Z,99.90
2018-02-20T05:11:47.102Z,99.90
2018-02-20T05:14:14.660Z,99.90
2018-02-20T05:16:42.206Z,99.90
2018-02-20T05:19:10.080Z,99.90
2018-02-20T05:21:37.619Z,99.90
2018-02-20T05:24:05.915Z,99.90
2018-02-20T05:26:34.822Z,99.90
2018-02-20T05:29:02.346Z,99.90
2018-02-20T05:31:29.909Z,99.90
2018-02-20T05:33:57.439Z,99.90
2018-02-20T05:36:25.035Z,99.90
2018-02-20T05:38:52.561Z,99.90
2018-02-20T05:41:20.129Z,99.90
2018-02-20T05:43:47.652Z,99.90
2018-02-20T05:46:15.184Z,99.90
2018-02-20T05:48:43.512Z,99.90
2018-02-20T05:51:11.075Z,99.90
2018-02-20T05:53:38.615Z,99.90
2018-02-20T05:56:06.920Z,99.90
2018-02-20T05:58:35.243Z,99.90
2018-02-20T06:01:02.801Z,99.90
2018-02-20T06:03:30.357Z,99.90
2018-02-20T06:05:57.887Z,99.90
2018-02-20T06:08:25.475Z,99.90
2018-02-20T06:10:53.017Z,99.90
2018-02-20T06:13:20.844Z,99.90
2018-02-20T06:15:49.141Z,99.90
2018-02-20T06:18:17.436Z,99.90
2018-02-20T06:20:45.044Z,99.90
2018-02-20T06:23:12.575Z,99.90
2018-02-20T06:25:40.267Z,99.90
2018-02-20T06:28:07.799Z,99.90
2018-02-20T06:30:35.372Z,99.90
2018-02-20T06:33:02.946Z,99.90
2018-02-20T06:35:30.492Z,99.90
2018-02-20T06:37:58.064Z,99.90
2018-02-20T06:40:25.635Z,99.90
2018-02-20T06:42:53.183Z,99.90
2018-02-20T06:45:20.753Z,99.90
2018-02-20T06:47:48.309Z,99.90
2018-02-20T06:50:15.872Z,99.90
2018-02-20T06:52:44.172Z,99.90
2018-02-20T06:55:11.703Z,99.90
2018-02-20T06:57:39.272Z,99.90
2018-02-20T07:00:06.806Z,99.90
2018-02-20T07:02:34.352Z,99.90
2018-02-20T07:05:01.872Z,99.90
2018-02-20T07:07:29.437Z,99.90
2018-02-20T07:09:56.995Z,99.90
2018-02-20T07:12:24.527Z,99.90
2018-02-20T07:14:52.157Z,99.90
2018-02-20T07:17:19.675Z,99.90
2018-02-20T07:19:47.268Z,99.90
2018-02-20T07:22:14.803Z,99.90
2018-02-20T07:24:42.359Z,99.90
2018-02-20T07:27:09.920Z,99.90
2018-02-20T07:29:37.445Z,99.90
2018-02-20T07:32:05.752Z,96.60
2018-02-20T07:34:33.274Z,96.50
2018-02-20T07:37:00.821Z,94.20
2018-02-20T07:39:28.340Z,93.40
2018-02-20T07:41:55.881Z,92.90
2018-02-20T07:44:23.416Z,90.80
2018-02-20T07:46:50.976Z,90.10
2018-02-20T07:49:18.517Z,85.00
2018-02-20T07:51:46.083Z,79.20
2018-02-20T07:54:13.609Z,75.00
2018-02-20T07:56:41.151Z,72.30
2018-02-20T07:59:08.701Z,69.10
2018-02-20T08:01:36.242Z,67.10
2018-02-20T08:04:03.768Z,64.90
2018-02-20T08:06:32.098Z,60.40
2018-02-20T08:08:59.688Z,60.40
2018-02-20T08:11:27.216Z,58.90
2018-02-20T08:13:54.794Z,56.30
2018-02-20T08:16:22.385Z,54.40
2018-02-20T08:18:49.949Z,54.10
2018-02-20T08:21:17.468Z,53.00
2018-02-20T08:23:45.038Z,50.80
2018-02-20T08:26:12.600Z,50.90
2018-02-20T08:28:40.120Z,51.30
2018-02-20T08:31:07.713Z,51.80
2018-02-20T08:33:35.299Z,51.50
2018-02-20T08:36:02.861Z,51.20
2018-02-20T08:38:30.386Z,49.70
2018-02-20T08:40:57.940Z,47.90
2018-02-20T08:43:25.461Z,49.00
2018-02-20T08:45:53.031Z,50.00
2018-02-20T08:48:21.314Z,50.20
2018-02-20T08:50:48.884Z,49.70
2018-02-20T08:53:17.169Z,47.50
2018-02-20T08:55:45.494Z,46.70
2018-02-20T08:58:13.033Z,46.80
2018-02-20T09:00:40.604Z,46.80
2018-02-20T09:03:08.124Z,46.30
2018-02-20T09:05:35.692Z,45.00
2018-02-20T09:08:03.257Z,46.10
2018-02-20T09:10:30.788Z,46.80
2018-02-20T09:12:59.107Z,44.90
2018-02-20T09:15:26.633Z,45.00
2018-02-20T09:17:54.205Z,45.30
2018-02-20T09:20:21.731Z,45.90
2018-02-20T09:22:49.296Z,45.40
2018-02-20T09:25:16.827Z,44.30
2018-02-20T09:27:44.383Z,44.90
2018-02-20T09:30:11.912Z,45.60
2018-02-20T09:32:39.468Z,45.70
2018-02-20T09:35:07.762Z,43.50
2018-02-20T09:37:35.341Z,43.60
2018-02-20T09:40:02.872Z,42.30
2018-02-20T09:42:30.428Z,42.40
2018-02-20T09:44:57.997Z,41.50
2018-02-20T09:47:25.534Z,42.70
2018-02-20T09:49:53.101Z,42.70
2018-02-20T09:52:20.657Z,43.10
2018-02-20T09:54:49.120Z,44.10
2018-02-20T09:57:16.648Z,44.10
2018-02-20T09:59:44.172Z,44.90
2018-02-20T10:02:11.746Z,46.20
2018-02-20T10:04:39.281Z,44.90
2018-02-20T10:07:06.837Z,42.90
2018-02-20T10:09:34.369Z,42.70
2018-02-20T10:12:01.937Z,43.30
2018-02-20T10:14:29.464Z,43.00
2018-02-20T10:16:57.015Z,40.50
2018-02-20T10:19:24.543Z,39.70
2018-02-20T10:21:52.122Z,38.80
2018-02-20T10:24:19.644Z,38.50
2018-02-20T10:26:47.202Z,41.50
2018-02-20T10:29:14.753Z,39.90
2018-02-20T10:31:43.081Z,38.50
2018-02-20T10:34:10.609Z,39.00
2018-02-20T10:36:38.168Z,37.60
2018-02-20T10:39:05.689Z,36.80
2018-02-20T10:41:33.236Z,37.50
2018-02-20T10:44:00.760Z,40.00
2018-02-20T10:46:28.325Z,40.60
2018-02-20T10:48:55.848Z,40.70
2018-02-20T10:51:23.407Z,39.50
2018-02-20T10:53:50.927Z,38.70
2018-02-20T10:56:18.480Z,39.40
2018-02-20T10:58:46.011Z,37.00
2018-02-20T11:01:13.600Z,37.40
2018-02-20T11:03:41.121Z,35.70
2018-02-20T11:06:08.681Z,34.80
2018-02-20T11:08:36.429Z,35.30
2018-02-20T11:11:03.963Z,35.40
2018-02-20T11:13:31.490Z,35.90
2018-02-20T11:15:59.069Z,37.90
2018-02-20T11:18:26.604Z,35.90
2018-02-20T11:20:54.151Z,35.40
2018-02-20T11:23:21.679Z,37.00
2018-02-20T11:25:50.002Z,42.40
2018-02-20T11:28:17.519Z,42.50
2018-02-20T11:30:45.086Z,46.40
2018-02-20T11:33:12.604Z,47.90
2018-02-20T11:35:40.148Z,51.10
2018-02-20T11:38:08.470Z,52.00
2018-02-20T11:40:36.029Z,52.00
2018-02-20T11:43:03.555Z,53.80
2018-02-20T11:45:31.101Z,56.60
2018-02-20T11:47:58.622Z,57.20
2018-02-20T11:50:26.167Z,58.10
2018-02-20T11:52:54.172Z,59.30
2018-02-20T11:55:21.720Z,61.40
2018-02-20T11:57:49.232Z,62.00
2018-02-20T12:00:17.548Z,60.10
2018-02-20T12:02:45.068Z,60.10
2018-02-20T12:05:12.617Z,59.70
2018-02-20T12:07:40.137Z,59.00
2018-02-20T12:10:07.683Z,58.60
2018-02-20T12:12:35.198Z,61.10
2018-02-20T12:15:02.757Z,61.40
2018-02-20T12:17:30.284Z,61.50
2018-02-20T12:19:57.862Z,62.30
2018-02-20T12:22:25.373Z,62.30
2018-02-20T12:24:52.931Z,61.70
2018-02-20T12:27:21.274Z,62.00
2018-02-20T12:29:48.799Z,62.00
2018-02-20T12:32:17.112Z,62.80
2018-02-20T12:34:44.623Z,62.80
2018-02-20T12:37:12.168Z,63.20
2018-02-20T12:39:39.689Z,64.30
2018-02-20T12:42:07.238Z,65.20
2018-02-20T12:44:34.768Z,63.10
2018-02-20T12:47:02.329Z,62.30
2018-02-20T12:49:29.847Z,63.20
2018-02-20T12:51:57.407Z,63.40
2018-02-20T12:54:24.939Z,63.40
2018-02-20T12:56:52.478Z,63.80
2018-02-20T12:59:20.024Z,64.00
2018-02-20T13:01:47.555Z,63.50
2018-02-20T13:04:15.874Z,64.20
2018-02-20T13:06:43.383Z,64.20
2018-02-20T13:09:10.946Z,63.40
2018-02-20T13:11:38.477Z,63.20
2018-02-20T13:14:06.038Z,63.40
2018-02-20T13:16:33.560Z,64.00
2018-02-20T13:19:01.144Z,67.50
2018-02-20T13:21:28.676Z,66.30
2018-02-20T13:23:56.246Z,64.30
2018-02-20T13:26:23.773Z,64.60
2018-02-20T13:28:52.063Z,63.70
2018-02-20T13:31:19.612Z,63.70
2018-02-20T13:33:47.167Z,62.90
2018-02-20T13:36:14.694Z,62.90
2018-02-20T13:38:42.259Z,63.60
2018-02-20T13:41:09.812Z,63.60
2018-02-20T13:43:37.342Z,63.60
2018-02-20T13:46:04.903Z,62.90
2018-02-20T13:48:32.424Z,63.00
2018-02-20T13:50:59.999Z,63.70
2018-02-20T13:53:27.524Z,63.70
2018-02-20T13:55:55.071Z,64.30
2018-02-20T13:58:23.364Z,63.10
2018-02-20T14:00:50.957Z,63.10
2018-02-20T14:03:18.472Z,62.50
2018-02-20T14:05:46.043Z,63.40
2018-02-20T14:08:13.603Z,63.80
2018-02-20T14:10:41.117Z,63.30
2018-02-20T14:13:09.439Z,63.00
2018-02-20T14:15:36.987Z,62.60
2018-02-20T14:18:04.512Z,63.60
2018-02-20T14:20:32.060Z,62.20
2018-02-20T14:22:59.590Z,61.70
2018-02-20T14:25:27.151Z,60.40
2018-02-20T14:27:54.687Z,61.80
2018-02-20T14:30:22.239Z,59.60
2018-02-20T14:32:49.800Z,59.20
2018-02-20T14:35:18.091Z,59.60
2018-02-20T14:37:46.132Z,59.70
2018-02-20T14:40:13.671Z,60.60
2018-02-20T14:42:41.226Z,60.00
2018-02-20T14:45:08.759Z,59.30
2018-02-20T14:47:36.319Z,59.70
2018-02-20T14:50:03.840Z,59.70
2018-02-20T14:52:31.468Z,59.20
2018-02-20T14:54:58.999Z,58.40
2018-02-20T14:57:26.558Z,58.60
2018-02-20T14:59:54.936Z,59.30
2018-02-20T15:02:23.240Z,60.10
2018-02-20T15:04:50.760Z,60.10
2018-02-20T15:07:18.308Z,59.60
2018-02-20T15:09:45.836Z,60.00
2018-02-20T15:12:14.176Z,59.90
2018-02-20T15:14:41.699Z,59.70
2018-02-20T15:17:09.224Z,58.80
2018-02-20T15:19:36.788Z,59.20
2018-02-20T15:22:04.307Z,59.00
2018-02-20T15:24:31.869Z,60.00
2018-02-20T15:26:59.394Z,59.40
2018-02-20T15:29:26.944Z,59.10
2018-02-20T15:31:54.868Z,58.60
2018-02-20T15:34:22.400Z,59.60
2018-02-20T15:36:50.717Z,61.70
2018-02-20T15:39:18.236Z,61.50
2018-02-20T15:41:45.785Z,62.60
2018-02-20T15:44:13.320Z,63.00
2018-02-20T15:46:40.859Z,63.30
2018-02-20T15:49:09.136Z,65.00
2018-02-20T15:51:36.699Z,65.00
2018-02-20T15:54:04.223Z,65.70
2018-02-20T15:56:31.768Z,66.80
2018-02-20T15:59:00.063Z,67.50
2018-02-20T16:01:28.378Z,67.30
2018-02-20T16:03:55.906Z,67.30
2018-02-20T16:06:23.463Z,67.70
2018-02-20T16:08:51.021Z,68.70
2018-02-20T16:11:18.530Z,69.60
2018-02-20T16:13:46.856Z,71.40
2018-02-20T16:16:24.288Z,70.60
2018-02-20T16:18:51.849Z,70.90
2018-02-20T16:21:19.372Z,71.30
2018-02-20T16:23:47.707Z,72.70
2018-02-20T16:26:15.234Z,72.70
2018-02-20T16:28:43.548Z,73.10
2018-02-20T16:31:11.091Z,73.10
2018-02-20T16:33:38.612Z,73.80
2018-02-20T16:36:06.163Z,74.80
2018-02-20T16:38:33.683Z,75.40
2018-02-20T16:41:01.228Z,76.50
2018-02-20T16:43:28.751Z,77.10
2018-02-20T16:45:56.304Z,77.80
2018-02-20T16:48:23.827Z,79.00
2018-02-20T16:50:51.404Z,80.00
2018-02-20T16:53:18.926Z,81.00
2018-02-20T16:55:46.465Z,81.70
2018-02-20T16:58:14.022Z,82.70
2018-02-20T17:00:41.602Z,83.70
2018-02-20T17:03:09.124Z,84.80
2018-02-20T17:05:36.645Z,85.00
2018-02-20T17:08:04.423Z,85.70
2018-02-20T17:10:31.964Z,87.30
2018-02-20T17:12:59.522Z,87.80
2018-02-20T17:15:27.044Z,85.70
2018-02-20T17:17:54.616Z,83.30
2018-02-20T17:20:22.148Z,80.90
2018-02-20T17:22:49.732Z,80.10
2018-02-20T17:25:18.026Z,79.00
2018-02-20T17:27:46.305Z,78.30
2018-02-20T17:30:13.850Z,78.20
2018-02-20T17:32:41.446Z,78.50
2018-02-20T17:35:08.923Z,78.10
2018-02-20T17:37:36.472Z,78.10
2018-02-20T17:40:03.999Z,77.80
2018-02-20T17:42:31.557Z,78.20
2018-02-20T17:44:59.852Z,79.10
2018-02-20T17:47:27.400Z,79.10
2018-02-20T17:49:54.959Z,79.50
2018-02-20T17:52:22.532Z,80.50
2018-02-20T17:54:50.047Z,80.40
2018-02-20T17:57:17.596Z,80.90
2018-02-20T17:59:45.117Z,81.00
2018-02-20T18:02:12.667Z,81.30
2018-02-20T18:04:40.258Z,81.90
2018-02-20T18:07:07.788Z,81.70
2018-02-20T18:09:36.068Z,82.20
2018-02-20T18:12:03.643Z,82.30
2018-02-20T18:14:31.156Z,82.80
2018-02-20T18:16:58.700Z,83.30
2018-02-20T18:19:26.281Z,83.70
2018-02-20T18:21:53.799Z,84.00
2018-02-20T18:24:21.382Z,84.90
2018-02-20T18:26:48.936Z,85.30
2018-02-20T18:29:16.447Z,85.70
2018-02-20T18:31:43.997Z,87.10
2018-02-20T18:34:11.526Z,86.20
2018-02-20T18:36:39.094Z,85.70
2018-02-20T18:39:06.651Z,85.60
2018-02-20T18:41:34.968Z,85.50
2018-02-20T18:44:02.481Z,85.50
2018-02-20T18:46:30.078Z,85.50
2018-02-20T18:48:57.632Z,85.20
2018-02-20T18:51:25.202Z,85.10
2018-02-20T18:53:52.855Z,85.60
2018-02-20T18:56:20.403Z,86.00
2018-02-20T18:58:47.932Z,86.00
2018-02-20T19:01:15.488Z,86.80
2018-02-20T19:03:43.009Z,87.30
2018-02-20T19:06:10.580Z,88.10
2018-02-20T19:08:38.144Z,88.50
2018-02-20T19:11:05.673Z,89.10
2018-02-20T19:13:33.246Z,90.00
2018-02-20T19:16:00.780Z,90.10
2018-02-20T19:18:28.320Z,90.20
2018-02-20T19:20:56.759Z,90.10
2018-02-20T19:23:24.292Z,90.10
2018-02-20T19:25:51.861Z,90.40
2018-02-20T19:28:20.152Z,90.80
2018-02-20T19:30:48.464Z,91.10
2018-02-20T19:33:16.024Z,91.10
2018-02-20T19:35:43.573Z,91.30
2018-02-20T19:38:12.110Z,91.70
2018-02-20T19:40:39.659Z,91.90
2018-02-20T19:43:07.976Z,92.60
2018-02-20T19:45:35.554Z,92.70
2018-02-20T19:48:03.096Z,92.80
2018-02-20T19:50:31.421Z,93.80
2018-02-20T19:52:58.949Z,93.70
2018-02-20T19:55:27.289Z,93.50
2018-02-20T19:57:54.887Z,93.50
2018-02-20T20:00:22.910Z,93.60
2018-02-20T20:02:50.384Z,93.80
2018-02-20T20:05:18.035Z,93.90
2018-02-20T20:07:46.324Z,94.40
2018-02-20T20:10:13.896Z,94.40
2018-02-20T20:12:41.521Z,94.70
2018-02-20T20:15:09.185Z,94.80
2018-02-20T20:17:36.884Z,95.10
2018-02-20T20:20:04.579Z,95.30
2018-02-20T20:22:32.187Z,95.50
2018-02-20T20:25:00.000Z,95.70
2018-02-20T20:27:27.838Z,95.90
2018-02-20T20:29:55.515Z,96.00
2018-02-20T20:32:23.084Z,96.00
2018-02-20T20:34:51.405Z,96.20
2018-02-20T20:37:18.966Z,96.20
2018-02-20T20:39:46.503Z,96.20
2018-02-20T20:42:14.061Z,96.20
2018-02-20T20:44:41.731Z,96.30
2018-02-20T20:47:09.364Z,96.40
2018-02-20T20:49:36.897Z,96.80
2018-02-20T20:52:04.476Z,96.70
2018-02-20T20:54:32.767Z,96.70
2018-02-20T20:57:00.332Z,96.90
2018-02-20T20:59:27.983Z,96.90
2018-02-20T21:01:55.563Z,97.10
2018-02-20T21:04:23.916Z,97.30
2018-02-20T21:06:51.572Z,97.40
2018-02-20T21:09:19.866Z,97.80
2018-02-20T21:11:47.452Z,97.80
2018-02-20T21:14:14.991Z,97.90
2018-02-20T21:16:42.568Z,97.70
2018-02-20T21:19:10.868Z,97.70
2018-02-20T21:21:40.127Z,97.90
2018-02-20T21:24:07.673Z,97.90
2018-02-20T21:26:35.231Z,97.80
2018-02-20T21:29:03.519Z,98.20
2018-02-20T21:31:31.840Z,98.20
2018-02-20T21:33:59.371Z,98.20
2018-02-20T21:36:27.703Z,98.50
2018-02-20T21:38:55.360Z,98.50
2018-02-20T21:41:22.926Z,98.60
2018-02-20T21:43:50.455Z,98.80
2018-02-20T21:46:18.014Z,98.80
2018-02-20T21:48:45.544Z,98.90
2018-02-20T21:51:13.136Z,99.50
2018-02-20T21:53:40.663Z,99.80
2018-02-20T21:56:08.224Z,99.60
2018-02-20T21:58:35.782Z,99.50
2018-02-20T22:01:03.348Z,99.60
2018-02-20T22:03:30.876Z,99.90
2018-02-20T22:05:58.453Z,99.90
2018-02-20T22:08:25.996Z,99.90
2018-02-20T22:10:53.576Z,99.90
2018-02-20T22:13:21.120Z,99.90
2018-02-20T22:15:48.692Z,99.90
2018-02-20T22:18:16.219Z,99.80
2018-02-20T22:20:43.803Z,99.90
2018-02-20T22:23:11.328Z,99.90
2018-02-20T22:25:38.852Z,99.90
2018-02-20T22:28:06.403Z,99.90
2018-02-20T22:30:33.956Z,99.90
2018-02-20T22:33:01.477Z,99.90
2018-02-20T22:35:29.035Z,99.90
2018-02-20T22:37:56.575Z,99.90
2018-02-20T22:40:24.899Z,99.90
2018-02-20T22:42:52.427Z,99.90
2018-02-20T22:45:19.991Z,99.90
2018-02-20T22:47:47.522Z,99.90
2018-02-20T22:50:15.099Z,99.90
2018-02-20T22:52:42.658Z,99.90
2018-02-20T22:55:10.212Z,99.90
2018-02-20T22:57:37.740Z,99.90
2018-02-20T23:00:05.358Z,99.90
2018-02-20T23:02:33.657Z,99.90
2018-02-20T23:05:01.228Z,99.90
2018-02-20T23:07:28.781Z,99.90
2018-02-20T23:09:56.368Z,99.90
2018-02-20T23:12:23.887Z,99.90
2018-02-20T23:14:51.424Z,99.90
2018-02-20T23:17:18.983Z,99.90
2018-02-20T23:19:47.283Z,99.90
2018-02-20T23:22:14.858Z,99.90
2018-02-20T23:24:42.395Z,99.90
2018-02-20T23:27:09.952Z,99.90
2018-02-20T23:29:37.503Z,99.90
2018-02-20T23:32:05.037Z,99.90
2018-02-20T23:34:32.580Z,99.90
2018-02-20T23:37:00.108Z,99.90
2018-02-20T23:39:27.691Z,99.90
2018-02-20T23:41:55.249Z,99.90
2018-02-20T23:44:22.820Z,99.90
2018-02-20T23:46:50.344Z,99.90
2018-02-20T23:49:18.708Z,99.90
2018-02-20T23:51:46.246Z,99.90
2018-02-20T23:54:13.816Z,99.90
2018-02-20T23:56:41.340Z,99.90
2018-02-20T23:59:08.915Z,99.90
